createdAt,value
2019-04-30T00:02:05.556Z,6.40
2019-04-30T00:04:55.291Z,6.17
2019-04-30T00:07:42.449Z,6.37
2019-04-30T00:10:36.855Z,6.70
2019-04-30T00:13:20.923Z,7.17
2019-04-30T00:16:08.256Z,7.00
2019-04-30T00:19:00.541Z,6.60
2019-04-30T00:21:48.309Z,6.80
2019-04-30T00:24:35.504Z,6.97
2019-04-30T00:27:26.351Z,6.63
2019-04-30T00:30:12.273Z,6.60
2019-04-30T00:32:59.597Z,7.40
2019-04-30T00:35:49.744Z,7.00
2019-04-30T00:38:37.944Z,7.37
2019-04-30T00:41:25.751Z,7.00
2019-04-30T00:44:15.174Z,7.40
2019-04-30T00:47:05.021Z,6.60
2019-04-30T00:49:52.253Z,7.07
2019-04-30T00:52:40.599Z,6.83
2019-04-30T00:55:28.376Z,6.80
2019-04-30T00:58:17.509Z,7.10
2019-04-30T01:01:20.601Z,7.23
2019-04-30T01:04:28.216Z,6.53
2019-04-30T01:07:16.882Z,6.83
2019-04-30T01:10:05.086Z,7.07
2019-04-30T01:12:53.251Z,6.87
2019-04-30T01:15:44.005Z,7.37
2019-04-30T01:18:32.018Z,6.67
2019-04-30T01:21:19.565Z,7.03
2019-04-30T01:24:08.955Z,6.93
2019-04-30T01:27:00.794Z,5.90
2019-04-30T01:29:46.273Z,6.57
2019-04-30T01:32:33.985Z,6.83
2019-04-30T01:35:23.875Z,6.60
2019-04-30T01:38:12.692Z,6.47
2019-04-30T01:41:00.044Z,6.07
2019-04-30T01:43:48.717Z,6.07
2019-04-30T01:46:36.678Z,5.83
2019-04-30T01:49:26.666Z,6.03
2019-04-30T01:52:13.309Z,6.03
2019-04-30T01:55:00.764Z,6.60
2019-04-30T01:57:59.157Z,6.23
2019-04-30T02:00:51.184Z,6.03
2019-04-30T02:03:40.084Z,6.47
2019-04-30T02:06:29.442Z,6.30
2019-04-30T02:09:18.879Z,6.07
2019-04-30T02:12:06.227Z,6.53
2019-04-30T02:14:53.637Z,6.03
2019-04-30T02:17:41.190Z,7.40
2019-04-30T02:20:28.911Z,6.73
2019-04-30T02:23:16.549Z,6.80
2019-04-30T02:26:04.369Z,6.83
2019-04-30T02:28:52.157Z,6.63
2019-04-30T02:31:40.789Z,6.23
2019-04-30T02:34:36.069Z,6.33
2019-04-30T02:37:27.060Z,6.43
2019-04-30T02:40:14.779Z,6.30
2019-04-30T02:43:02.929Z,6.80
2019-04-30T02:45:51.592Z,6.37
2019-04-30T02:48:40.131Z,7.10
2019-04-30T02:51:30.066Z,6.20
2019-04-30T02:54:24.260Z,7.07
2019-04-30T02:57:12.268Z,5.93
2019-04-30T03:00:16.245Z,6.43
2019-04-30T03:03:03.736Z,6.87
2019-04-30T03:05:51.496Z,5.80
2019-04-30T03:08:40.388Z,6.00
2019-04-30T03:11:30.147Z,6.47
2019-04-30T03:14:19.863Z,6.67
2019-04-30T03:17:20.693Z,6.27
2019-04-30T03:20:36.194Z,6.17
2019-04-30T03:23:23.094Z,6.10
2019-04-30T03:26:12.932Z,5.70
2019-04-30T03:29:00.839Z,5.93
2019-04-30T03:31:52.433Z,5.37
2019-04-30T03:34:42.131Z,6.40
2019-04-30T03:37:29.283Z,6.20
2019-04-30T03:40:16.355Z,6.03
2019-04-30T03:43:04.056Z,6.07
2019-04-30T03:45:51.280Z,5.90
2019-04-30T03:48:39.571Z,6.17
2019-04-30T03:51:29.773Z,5.87
2019-04-30T03:54:16.354Z,5.83
2019-04-30T03:57:03.785Z,6.20
2019-04-30T03:59:51.084Z,6.17
2019-04-30T04:02:49.877Z,5.87
2019-04-30T04:05:49.727Z,6.30
2019-04-30T04:08:49.012Z,6.63
2019-04-30T04:11:39.883Z,5.80
2019-04-30T04:14:29.616Z,6.03
2019-04-30T04:17:16.429Z,6.43
2019-04-30T04:20:04.363Z,6.53
2019-04-30T04:22:52.635Z,6.53
2019-04-30T04:25:40.130Z,6.20
2019-04-30T04:28:29.787Z,6.17
2019-04-30T04:31:19.071Z,7.20
2019-04-30T04:34:06.061Z,8.43
2019-04-30T04:36:53.811Z,7.87
2019-04-30T04:39:42.176Z,7.30
2019-04-30T04:42:32.852Z,7.30
2019-04-30T04:45:19.828Z,7.60
2019-04-30T04:48:09.531Z,6.73
2019-04-30T04:50:56.909Z,7.00
2019-04-30T04:53:44.486Z,6.73
2019-04-30T04:56:32.252Z,6.93
2019-04-30T04:59:20.092Z,6.83
2019-04-30T05:02:32.763Z,7.20
2019-04-30T05:05:19.655Z,7.83
2019-04-30T05:08:08.530Z,7.43
2019-04-30T05:10:56.378Z,7.37
2019-04-30T05:13:44.393Z,7.00
2019-04-30T05:16:32.079Z,7.80
2019-04-30T05:19:20.396Z,7.47
2019-04-30T05:22:09.179Z,7.20
2019-04-30T05:24:58.661Z,7.37
2019-04-30T05:27:46.110Z,7.73
2019-04-30T05:30:33.675Z,7.60
2019-04-30T05:33:20.825Z,7.53
2019-04-30T05:36:09.293Z,7.73
2019-04-30T05:38:58.705Z,7.37
2019-04-30T05:41:46.038Z,7.57
2019-04-30T05:44:35.380Z,6.87
2019-04-30T05:47:23.508Z,7.97
2019-04-30T05:50:11.882Z,7.40
2019-04-30T05:52:59.803Z,8.33
2019-04-30T05:55:49.230Z,7.60
2019-04-30T05:58:37.007Z,8.00
2019-04-30T06:01:24.576Z,7.07
2019-04-30T06:04:12.311Z,7.40
2019-04-30T06:07:00.365Z,7.70
2019-04-30T06:09:56.812Z,7.37
2019-04-30T06:13:09.085Z,7.27
2019-04-30T06:16:08.827Z,8.87
2019-04-30T06:18:56.233Z,8.23
2019-04-30T06:21:43.919Z,9.40
2019-04-30T06:24:31.318Z,9.33
2019-04-30T06:27:19.343Z,9.67
2019-04-30T06:30:09.668Z,7.87
2019-04-30T06:32:59.233Z,8.43
2019-04-30T06:35:49.141Z,8.43
2019-04-30T06:38:36.527Z,8.30
2019-04-30T06:41:23.614Z,8.57
2019-04-30T06:44:11.836Z,7.47
2019-04-30T06:47:01.275Z,8.03
2019-04-30T06:49:49.020Z,8.23
2019-04-30T06:52:36.476Z,8.33
2019-04-30T06:55:24.480Z,8.27
2019-04-30T06:58:15.465Z,8.17
2019-04-30T07:01:01.047Z,9.70
2019-04-30T07:03:48.791Z,8.60
2019-04-30T07:06:37.046Z,7.80
2019-04-30T07:09:49.882Z,8.57
2019-04-30T07:12:30.587Z,8.77
2019-04-30T07:15:19.542Z,8.53
2019-04-30T07:18:08.991Z,8.50
2019-04-30T07:20:56.036Z,9.00
2019-04-30T07:23:43.725Z,9.33
2019-04-30T07:26:30.953Z,8.83
2019-04-30T07:29:19.647Z,9.03
2019-04-30T07:32:09.240Z,7.87
2019-04-30T07:34:56.301Z,9.37
2019-04-30T07:37:44.138Z,8.80
2019-04-30T07:40:31.194Z,9.17
2019-04-30T07:43:19.097Z,9.90
2019-04-30T07:46:06.338Z,10.30
2019-04-30T07:48:54.011Z,10.67
2019-04-30T07:51:42.472Z,9.53
2019-04-30T07:54:30.473Z,11.03
2019-04-30T07:57:19.245Z,10.97
2019-04-30T08:00:07.152Z,10.47
2019-04-30T08:03:10.989Z,10.70
2019-04-30T08:06:00.694Z,9.40
2019-04-30T08:08:50.682Z,10.17
2019-04-30T08:11:41.853Z,10.60
2019-04-30T08:14:28.769Z,11.23
2019-04-30T08:17:15.956Z,9.87
2019-04-30T08:20:03.787Z,10.13
2019-04-30T08:22:51.292Z,10.27
2019-04-30T08:25:39.172Z,10.77
2019-04-30T08:28:30.143Z,10.33
2019-04-30T08:31:16.175Z,10.60
2019-04-30T08:34:03.832Z,10.63
2019-04-30T08:36:51.659Z,9.90
2019-04-30T08:39:39.704Z,10.93
2019-04-30T08:42:31.734Z,10.33
2019-04-30T08:45:16.543Z,10.30
2019-04-30T08:48:04.393Z,10.83
2019-04-30T08:50:51.855Z,11.30
2019-04-30T08:53:41.077Z,10.90
2019-04-30T08:56:29.584Z,10.10
2019-04-30T08:59:19.181Z,9.63
2019-04-30T09:02:14.572Z,9.50
2019-04-30T09:04:58.807Z,9.90
2019-04-30T09:07:48.682Z,8.93
2019-04-30T09:10:36.609Z,9.77
2019-04-30T09:13:24.315Z,9.50
2019-04-30T09:16:12.047Z,9.10
2019-04-30T09:18:59.647Z,9.37
2019-04-30T09:21:48.842Z,8.63
2019-04-30T09:24:36.354Z,8.63
2019-04-30T09:27:23.723Z,8.93
2019-04-30T09:30:11.679Z,9.40
2019-04-30T09:32:59.541Z,9.33
2019-04-30T09:35:47.101Z,9.20
2019-04-30T09:38:34.748Z,8.97
2019-04-30T09:41:22.239Z,9.37
2019-04-30T09:44:10.080Z,8.43
2019-04-30T09:46:58.846Z,8.33
2019-04-30T09:49:46.691Z,9.10
2019-04-30T09:52:36.116Z,9.67
2019-04-30T09:55:23.548Z,9.37
2019-04-30T09:58:17.313Z,9.67
2019-04-30T10:01:00.144Z,10.23
2019-04-30T10:03:50.056Z,10.00
2019-04-30T10:06:40.146Z,8.53
2019-04-30T10:09:26.122Z,8.97
2019-04-30T10:12:14.879Z,9.13
2019-04-30T10:15:02.930Z,8.93
2019-04-30T10:17:50.670Z,9.20
2019-04-30T10:20:42.571Z,10.50
2019-04-30T10:23:30.435Z,8.93
2019-04-30T10:26:18.126Z,9.07
2019-04-30T10:29:05.475Z,9.80
2019-04-30T10:31:52.828Z,8.47
2019-04-30T10:34:40.324Z,8.33
2019-04-30T10:37:28.748Z,8.83
2019-04-30T10:40:20.078Z,9.40
2019-04-30T10:43:05.961Z,8.50
2019-04-30T10:45:53.451Z,8.63
2019-04-30T10:48:43.356Z,8.43
2019-04-30T10:51:30.861Z,7.67
2019-04-30T10:54:26.031Z,8.07
2019-04-30T10:57:08.728Z,8.17
2019-04-30T10:59:58.540Z,7.80
2019-04-30T11:02:46.539Z,8.03
2019-04-30T11:05:34.641Z,7.60
2019-04-30T11:08:22.550Z,7.40
2019-04-30T11:11:10.171Z,7.57
2019-04-30T11:13:57.448Z,8.17
2019-04-30T11:16:45.275Z,7.33
2019-04-30T11:19:33.093Z,8.67
2019-04-30T11:22:21.001Z,8.63
2019-04-30T11:25:10.017Z,8.80
2019-04-30T11:27:58.831Z,9.77
2019-04-30T11:30:49.094Z,9.40
2019-04-30T11:33:36.939Z,8.90
2019-04-30T11:36:29.172Z,10.13
2019-04-30T11:39:21.550Z,9.13
2019-04-30T11:42:08.586Z,9.93
2019-04-30T11:44:55.997Z,9.10
2019-04-30T11:47:53.054Z,9.77
2019-04-30T11:50:32.601Z,9.50
2019-04-30T11:53:25.549Z,9.80
2019-04-30T11:56:09.105Z,9.70
2019-04-30T11:58:58.758Z,10.47
2019-04-30T12:01:46.229Z,10.40
2019-04-30T12:04:34.073Z,10.80
2019-04-30T12:07:53.214Z,10.37
2019-04-30T12:10:53.295Z,9.23
2019-04-30T12:13:40.721Z,9.13
2019-04-30T12:16:33.601Z,9.67
2019-04-30T12:19:19.904Z,9.20
2019-04-30T12:22:07.324Z,9.97
2019-04-30T12:25:02.612Z,10.13
2019-04-30T12:27:43.666Z,9.33
2019-04-30T12:30:31.690Z,9.83
2019-04-30T12:33:19.334Z,9.67
2019-04-30T12:36:08.889Z,8.83
2019-04-30T12:38:56.028Z,9.47
2019-04-30T12:41:43.376Z,8.40
2019-04-30T12:44:31.122Z,8.27
2019-04-30T12:47:21.492Z,8.47
2019-04-30T12:50:16.641Z,7.93
2019-04-30T12:53:09.418Z,7.70
2019-04-30T12:56:04.977Z,8.50
2019-04-30T12:58:52.404Z,8.00
2019-04-30T13:01:40.046Z,7.90
2019-04-30T13:04:29.221Z,7.93
2019-04-30T13:07:16.670Z,9.00
2019-04-30T13:10:06.800Z,8.60
2019-04-30T13:12:55.039Z,8.53
2019-04-30T13:15:43.222Z,8.00
2019-04-30T13:18:31.204Z,7.80
2019-04-30T13:21:19.131Z,7.93
2019-04-30T13:24:06.646Z,7.77
2019-04-30T13:26:54.151Z,7.33
2019-04-30T13:30:05.828Z,8.00
2019-04-30T13:33:20.424Z,7.40
2019-04-30T13:36:08.755Z,6.87
2019-04-30T13:39:12.296Z,7.23
2019-04-30T13:42:15.151Z,7.23
2019-04-30T13:44:53.199Z,7.20
2019-04-30T13:47:40.943Z,7.43
2019-04-30T13:50:29.268Z,7.90
2019-04-30T13:53:16.423Z,8.00
2019-04-30T13:56:04.195Z,7.67
2019-04-30T13:58:51.883Z,8.00
2019-04-30T14:01:39.525Z,7.93
2019-04-30T14:05:04.028Z,8.20
2019-04-30T14:08:13.721Z,8.03
2019-04-30T14:11:00.887Z,8.60
2019-04-30T14:13:48.650Z,7.77
2019-04-30T14:16:36.290Z,7.30
2019-04-30T14:19:24.199Z,8.47
2019-04-30T14:22:12.084Z,8.27
2019-04-30T14:24:59.954Z,7.73
2019-04-30T14:27:51.785Z,7.43
2019-04-30T14:30:36.586Z,7.73
2019-04-30T14:33:26.613Z,7.30
2019-04-30T14:36:13.494Z,7.57
2019-04-30T14:39:13.626Z,7.83
2019-04-30T14:41:51.858Z,7.27
2019-04-30T14:44:40.265Z,7.10
2019-04-30T14:47:42.763Z,7.40
2019-04-30T14:50:31.317Z,8.03
2019-04-30T14:53:38.702Z,8.27
2019-04-30T14:56:32.548Z,7.47
2019-04-30T14:59:39.047Z,7.37
2019-04-30T15:02:33.821Z,7.37
2019-04-30T15:05:21.717Z,7.10
2019-04-30T15:08:09.098Z,7.30
2019-04-30T15:10:56.462Z,6.33
2019-04-30T15:13:44.491Z,7.17
2019-04-30T15:16:32.483Z,7.47
2019-04-30T15:19:20.194Z,7.50
2019-04-30T15:22:09.124Z,7.53
2019-04-30T15:24:56.847Z,7.10
2019-04-30T15:27:49.128Z,7.23
2019-04-30T15:30:33.684Z,7.30
2019-04-30T15:33:29.079Z,7.37
2019-04-30T15:36:16.562Z,7.40
2019-04-30T15:39:26.243Z,6.63
2019-04-30T15:42:14.394Z,7.20
2019-04-30T15:45:02.027Z,7.43
2019-04-30T15:47:49.461Z,6.83
2019-04-30T15:50:36.912Z,6.43
2019-04-30T15:53:24.891Z,7.13
2019-04-30T15:56:12.390Z,6.33
2019-04-30T15:59:19.032Z,7.13
2019-04-30T16:02:11.828Z,6.53
2019-04-30T16:05:24.682Z,7.40
2019-04-30T16:08:21.727Z,6.03
2019-04-30T16:11:30.390Z,6.87
2019-04-30T16:14:24.884Z,7.50
2019-04-30T16:17:20.353Z,6.60
2019-04-30T16:20:06.865Z,6.50
2019-04-30T16:22:54.266Z,7.27
2019-04-30T16:25:41.889Z,6.73
2019-04-30T16:28:29.567Z,6.37
2019-04-30T16:31:18.923Z,6.97
2019-04-30T16:34:06.262Z,6.10
2019-04-30T16:36:53.964Z,5.77
2019-04-30T16:39:41.688Z,6.20
2019-04-30T16:42:29.127Z,6.50
2019-04-30T16:45:18.924Z,6.47
2019-04-30T16:48:05.996Z,6.77
2019-04-30T16:50:53.360Z,6.30
2019-04-30T16:53:41.268Z,6.10
2019-04-30T16:56:28.768Z,6.30
2019-04-30T16:59:19.433Z,5.70
2019-04-30T17:02:06.724Z,4.80
2019-04-30T17:05:02.391Z,6.67
2019-04-30T17:08:13.540Z,5.73
2019-04-30T17:11:12.620Z,5.10
2019-04-30T17:14:04.044Z,5.87
2019-04-30T17:16:52.228Z,6.30
2019-04-30T17:19:39.900Z,5.87
2019-04-30T17:22:29.241Z,6.20
2019-04-30T17:25:18.405Z,6.07
2019-04-30T17:28:06.437Z,6.03
2019-04-30T17:30:53.779Z,6.70
2019-04-30T17:33:41.103Z,5.73
2019-04-30T17:36:29.793Z,6.57
2019-04-30T17:39:19.731Z,6.30
2019-04-30T17:42:07.460Z,6.40
2019-04-30T17:44:58.776Z,5.77
2019-04-30T17:47:44.022Z,5.43
2019-04-30T17:50:31.831Z,5.13
2019-04-30T17:53:19.403Z,5.20
2019-04-30T17:56:07.106Z,5.43
2019-04-30T17:58:54.687Z,4.77
2019-04-30T18:01:44.769Z,4.97
2019-04-30T18:04:32.316Z,5.10
2019-04-30T18:07:20.157Z,4.70
2019-04-30T18:10:09.959Z,5.10
2019-04-30T18:12:57.566Z,4.53
2019-04-30T18:15:48.165Z,5.27
2019-04-30T18:18:51.209Z,5.80
2019-04-30T18:21:48.622Z,5.30
2019-04-30T18:25:07.250Z,4.27
2019-04-30T18:27:59.507Z,4.80
2019-04-30T18:30:49.032Z,5.17
2019-04-30T18:33:36.811Z,4.57
2019-04-30T18:36:24.356Z,4.67
2019-04-30T18:39:11.849Z,4.43
2019-04-30T18:41:59.661Z,5.00
2019-04-30T18:44:47.028Z,5.03
2019-04-30T18:47:35.546Z,4.80
2019-04-30T18:50:23.264Z,4.50
2019-04-30T18:53:16.052Z,4.93
2019-04-30T18:56:03.302Z,5.40
2019-04-30T18:58:51.111Z,5.00
2019-04-30T19:01:39.159Z,5.63
2019-04-30T19:04:28.809Z,5.70
2019-04-30T19:07:43.879Z,5.30
2019-04-30T19:10:53.477Z,5.97
2019-04-30T19:14:03.178Z,5.20
2019-04-30T19:17:09.553Z,5.43
2019-04-30T19:20:16.158Z,5.73
2019-04-30T19:23:03.725Z,5.63
2019-04-30T19:25:51.457Z,6.03
2019-04-30T19:28:39.229Z,6.20
2019-04-30T19:31:27.141Z,6.37
2019-04-30T19:34:14.247Z,6.10
2019-04-30T19:37:01.769Z,6.73
2019-04-30T19:39:51.125Z,6.57
2019-04-30T19:42:39.537Z,7.60
2019-04-30T19:45:27.369Z,7.03
2019-04-30T19:48:16.186Z,5.90
2019-04-30T19:51:04.315Z,6.33
2019-04-30T19:53:52.432Z,6.27
2019-04-30T19:56:39.560Z,7.07
2019-04-30T19:59:27.020Z,6.23
2019-04-30T20:02:14.783Z,6.47
2019-04-30T20:05:02.129Z,6.83
2019-04-30T20:07:49.528Z,6.30
2019-04-30T20:10:37.195Z,7.23
2019-04-30T20:13:33.907Z,6.23
2019-04-30T20:16:13.718Z,6.23
2019-04-30T20:19:01.251Z,6.80
2019-04-30T20:21:53.222Z,6.17
2019-04-30T20:24:39.400Z,6.47
2019-04-30T20:27:27.099Z,5.93
2019-04-30T20:30:14.869Z,6.90
2019-04-30T20:33:02.274Z,6.30
2019-04-30T20:35:49.897Z,5.83
2019-04-30T20:38:56.675Z,6.27
2019-04-30T20:41:44.150Z,6.80
2019-04-30T20:44:31.459Z,7.00
2019-04-30T20:47:21.043Z,7.40
2019-04-30T20:50:10.301Z,7.73
2019-04-30T20:53:00.216Z,7.13
2019-04-30T20:55:49.527Z,7.80
2019-04-30T20:58:54.882Z,7.70
2019-04-30T21:01:32.297Z,7.53
2019-04-30T21:04:20.908Z,6.87
2019-04-30T21:07:09.425Z,6.07
2019-04-30T21:10:00.474Z,6.03
2019-04-30T21:12:46.132Z,6.33
2019-04-30T21:15:33.490Z,6.43
2019-04-30T21:18:21.552Z,6.53
2019-04-30T21:21:09.574Z,7.70
2019-04-30T21:23:57.433Z,8.60
2019-04-30T21:26:45.099Z,6.77
2019-04-30T21:29:32.565Z,7.60
2019-04-30T21:32:28.683Z,7.53
2019-04-30T21:35:34.607Z,6.80
2019-04-30T21:38:25.514Z,7.03
2019-04-30T21:41:14.221Z,7.73
2019-04-30T21:44:02.376Z,7.07
2019-04-30T21:46:50.332Z,7.67
2019-04-30T21:49:37.705Z,8.30
2019-04-30T21:52:25.186Z,7.60
2019-04-30T21:55:13.172Z,7.73
2019-04-30T21:58:00.656Z,7.67
2019-04-30T22:01:06.274Z,7.53
2019-04-30T22:03:53.699Z,8.23
2019-04-30T22:06:41.620Z,8.40
2019-04-30T22:09:33.086Z,8.87
2019-04-30T22:12:20.519Z,9.30
2019-04-30T22:15:08.100Z,9.23
2019-04-30T22:17:55.753Z,9.47
2019-04-30T22:20:43.253Z,9.03
2019-04-30T22:23:30.635Z,9.23
2019-04-30T22:26:18.118Z,9.27
2019-04-30T22:29:05.805Z,9.80
2019-04-30T22:31:53.329Z,9.40
2019-04-30T22:34:40.657Z,8.57
2019-04-30T22:37:28.126Z,8.97
2019-04-30T22:40:17.098Z,9.00
2019-04-30T22:43:04.741Z,9.07
2019-04-30T22:45:59.924Z,9.10
2019-04-30T22:48:47.006Z,8.90
2019-04-30T22:51:34.606Z,9.03
2019-04-30T22:54:22.311Z,9.47
2019-04-30T22:57:09.714Z,9.57
2019-04-30T22:59:57.446Z,9.17
2019-04-30T23:03:05.520Z,8.97
2019-04-30T23:05:52.881Z,9.07
2019-04-30T23:08:40.523Z,9.70
2019-04-30T23:11:28.223Z,9.20
2019-04-30T23:14:16.801Z,9.60
2019-04-30T23:17:04.474Z,9.30
2019-04-30T23:19:52.113Z,8.83
2019-04-30T23:22:39.922Z,10.80
2019-04-30T23:25:27.383Z,10.70
2019-04-30T23:28:15.029Z,10.43
2019-04-30T23:31:02.415Z,10.40
2019-04-30T23:33:49.776Z,9.87
2019-04-30T23:36:36.907Z,9.70
2019-04-30T23:39:24.778Z,9.67
2019-04-30T23:42:12.228Z,10.53
2019-04-30T23:44:59.692Z,10.80
2019-04-30T23:47:47.446Z,10.27
2019-04-30T23:50:35.134Z,10.13
2019-04-30T23:53:22.302Z,9.80
2019-04-30T23:56:09.918Z,10.67
2019-04-30T23:58:57.304Z,10.93
